createdAt,value
2022-11-15T00:01:11.104Z,8.20
2022-11-15T00:03:39.389Z,13.80
2022-11-15T00:06:07.741Z,10.80
2022-11-15T00:08:36.068Z,15.40
2022-11-15T00:11:04.771Z,13.00
2022-11-15T00:13:33.304Z,15.00
2022-11-15T00:16:02.682Z,16.00
2022-11-15T00:18:32.611Z,9.60
2022-11-15T00:21:06.069Z,10.80
2022-11-15T00:23:34.714Z,13.00
2022-11-15T00:26:03.367Z,11.80
2022-11-15T00:28:31.810Z,12.80
2022-11-15T00:31:03.379Z,10.80
2022-11-15T00:33:33.455Z,12.20
2022-11-15T00:36:03.774Z,14.20
2022-11-15T00:38:34.434Z,12.40
2022-11-15T00:41:08.871Z,13.40
2022-11-15T00:43:37.799Z,15.00
2022-11-15T00:46:06.149Z,12.40
2022-11-15T00:48:35.843Z,14.20
2022-11-15T00:51:04.112Z,16.40
2022-11-15T00:53:32.714Z,14.00
2022-11-15T00:56:01.523Z,12.40
2022-11-15T00:58:29.810Z,12.20
2022-11-15T01:00:58.116Z,16.00
2022-11-15T01:03:26.468Z,9.60
2022-11-15T01:05:56.410Z,15.20
2022-11-15T01:08:24.700Z,15.80
2022-11-15T01:10:52.983Z,15.00
2022-11-15T01:13:21.233Z,13.00
2022-11-15T01:15:49.755Z,12.20
2022-11-15T01:18:18.033Z,14.80
2022-11-15T01:20:46.298Z,15.40
2022-11-15T01:23:15.979Z,15.80
2022-11-15T01:25:44.530Z,16.00
2022-11-15T01:28:12.811Z,17.40
2022-11-15T01:30:41.136Z,16.00
2022-11-15T01:33:09.715Z,13.60
2022-11-15T01:35:41.400Z,15.00
2022-11-15T01:38:09.748Z,14.20
2022-11-15T01:40:39.421Z,12.80
2022-11-15T01:43:22.549Z,14.20
2022-11-15T01:45:53.040Z,11.20
2022-11-15T01:48:21.343Z,13.40
2022-11-15T01:50:49.592Z,15.00
2022-11-15T01:53:17.891Z,15.60
2022-11-15T01:55:47.544Z,15.00
2022-11-15T01:58:15.792Z,14.60
2022-11-15T02:00:44.125Z,11.00
2022-11-15T02:03:12.423Z,12.80
2022-11-15T02:05:40.720Z,15.20
2022-11-15T02:08:08.998Z,12.40
2022-11-15T02:10:37.595Z,17.20
2022-11-15T02:13:07.314Z,11.20
2022-11-15T02:15:39.616Z,7.00
2022-11-15T02:18:13.254Z,9.20
2022-11-15T02:20:51.860Z,12.60
2022-11-15T02:23:38.053Z,12.60
2022-11-15T02:26:19.549Z,10.00
2022-11-15T02:28:52.097Z,13.00
2022-11-15T02:31:24.750Z,10.80
2022-11-15T02:33:55.621Z,16.00
2022-11-15T02:36:29.326Z,13.80
2022-11-15T02:39:00.973Z,14.20
2022-11-15T02:41:32.145Z,15.20
2022-11-15T02:44:02.318Z,13.80
2022-11-15T02:46:49.224Z,17.40
2022-11-15T02:49:17.524Z,17.20
2022-11-15T02:51:46.672Z,18.20
2022-11-15T02:54:16.466Z,14.60
2022-11-15T02:56:45.545Z,14.20
2022-11-15T02:59:21.314Z,13.00
2022-11-15T03:01:58.574Z,17.20
2022-11-15T03:04:30.527Z,11.40
2022-11-15T03:07:02.806Z,10.80
2022-11-15T03:09:34.956Z,12.80
2022-11-15T03:12:05.882Z,13.80
2022-11-15T03:14:35.943Z,12.00
2022-11-15T03:17:09.450Z,8.60
2022-11-15T03:19:39.768Z,11.20
2022-11-15T03:22:08.767Z,12.40
2022-11-15T03:24:37.481Z,10.00
2022-11-15T03:27:05.829Z,13.40
2022-11-15T03:29:35.169Z,12.20
2022-11-15T03:32:07.818Z,11.00
2022-11-15T03:34:38.629Z,9.80
2022-11-15T03:37:06.919Z,11.40
2022-11-15T03:39:35.202Z,11.20
2022-11-15T03:42:09.717Z,12.80
2022-11-15T03:44:42.992Z,13.00
2022-11-15T03:47:17.648Z,8.60
2022-11-15T03:49:47.557Z,5.60
2022-11-15T03:52:16.328Z,12.00
2022-11-15T03:54:51.329Z,12.80
2022-11-15T03:57:19.660Z,11.60
2022-11-15T03:59:47.949Z,12.20
2022-11-15T04:02:17.579Z,13.00
2022-11-15T04:04:46.398Z,10.00
2022-11-15T04:07:14.761Z,11.80
2022-11-15T04:09:57.335Z,9.40
2022-11-15T04:12:31.994Z,11.20
2022-11-15T04:15:09.562Z,10.00
2022-11-15T04:17:40.817Z,13.20
2022-11-15T04:20:25.165Z,14.60
2022-11-15T04:23:09.107Z,7.00
2022-11-15T04:25:37.454Z,13.00
2022-11-15T04:28:06.196Z,15.00
2022-11-15T04:30:34.485Z,12.80
2022-11-15T04:33:04.137Z,12.60
2022-11-15T04:35:32.663Z,12.20
2022-11-15T04:37:59.939Z,10.00
2022-11-15T04:40:28.246Z,14.20
2022-11-15T04:43:03.285Z,10.00
2022-11-15T04:45:32.063Z,13.80
2022-11-15T04:48:00.311Z,14.60
2022-11-15T04:50:29.985Z,9.80
2022-11-15T04:52:58.270Z,12.60
2022-11-15T04:55:26.882Z,13.60
2022-11-15T04:58:01.443Z,9.80
2022-11-15T05:00:30.365Z,12.20
2022-11-15T05:03:12.813Z,12.60
2022-11-15T05:05:42.539Z,8.60
2022-11-15T05:08:10.782Z,11.00
2022-11-15T05:10:39.760Z,13.80
2022-11-15T05:13:08.063Z,14.40
2022-11-15T05:15:36.348Z,10.00
2022-11-15T05:18:04.633Z,12.40
2022-11-15T05:20:32.897Z,13.00
2022-11-15T05:23:02.549Z,12.20
2022-11-15T05:25:31.144Z,12.80
2022-11-15T05:27:59.533Z,9.20
2022-11-15T05:30:27.815Z,12.00
2022-11-15T05:32:56.059Z,12.40
2022-11-15T05:35:37.051Z,10.40
2022-11-15T05:38:06.861Z,12.00
2022-11-15T05:40:35.131Z,12.00
2022-11-15T05:43:03.426Z,8.60
2022-11-15T05:45:32.019Z,8.20
2022-11-15T05:48:00.308Z,8.20
2022-11-15T05:50:28.576Z,13.00
2022-11-15T05:53:00.889Z,8.60
2022-11-15T05:55:37.257Z,7.40
2022-11-15T05:58:05.592Z,9.80
2022-11-15T06:00:33.847Z,7.80
2022-11-15T06:03:02.132Z,9.00
2022-11-15T06:05:30.381Z,9.60
2022-11-15T06:08:00.049Z,7.00
2022-11-15T06:10:29.423Z,9.20
2022-11-15T06:13:03.901Z,8.60
2022-11-15T06:15:32.244Z,6.00
2022-11-15T06:18:00.530Z,6.60
2022-11-15T06:20:28.936Z,9.00
2022-11-15T06:23:00.169Z,9.00
2022-11-15T06:25:28.513Z,6.00
2022-11-15T06:27:57.293Z,8.60
2022-11-15T06:30:27.272Z,7.00
2022-11-15T06:33:01.220Z,6.00
2022-11-15T06:35:29.572Z,7.80
2022-11-15T06:37:57.901Z,7.00
2022-11-15T06:40:26.164Z,7.00
2022-11-15T06:42:59.357Z,4.00
2022-11-15T06:45:29.023Z,7.40
2022-11-15T06:47:57.323Z,0.00
2022-11-15T06:50:26.536Z,6.40
2022-11-15T06:52:55.675Z,6.80
2022-11-15T06:55:25.387Z,6.00
2022-11-15T06:57:54.153Z,5.20
2022-11-15T07:00:23.372Z,3.80
2022-11-15T07:02:54.218Z,3.00
2022-11-15T07:05:22.774Z,5.20
2022-11-15T07:07:55.249Z,6.00
2022-11-15T07:10:25.315Z,4.00
2022-11-15T07:12:53.942Z,4.00
2022-11-15T07:15:23.737Z,5.20
2022-11-15T07:17:53.398Z,5.20
2022-11-15T07:20:22.734Z,4.40
2022-11-15T07:22:51.010Z,4.00
2022-11-15T07:25:22.175Z,6.80
2022-11-15T07:27:57.707Z,6.00
2022-11-15T07:30:26.824Z,3.00
2022-11-15T07:32:57.004Z,3.00
2022-11-15T07:35:25.328Z,4.00
2022-11-15T07:37:58.216Z,3.60
2022-11-15T07:40:26.613Z,4.80
2022-11-15T07:42:54.897Z,3.00
2022-11-15T07:45:23.568Z,4.00
2022-11-15T07:47:52.019Z,4.00
2022-11-15T07:50:21.689Z,2.20
2022-11-15T07:52:49.966Z,6.20
2022-11-15T07:55:18.663Z,4.80
2022-11-15T07:57:46.950Z,3.00
2022-11-15T08:00:17.882Z,3.40
2022-11-15T08:02:47.913Z,3.00
2022-11-15T08:05:16.646Z,0.60
2022-11-15T08:07:46.306Z,4.40
2022-11-15T08:10:15.102Z,3.00
2022-11-15T08:12:43.541Z,3.20
2022-11-15T08:15:12.493Z,3.20
2022-11-15T08:17:40.765Z,3.00
2022-11-15T08:20:09.984Z,1.40
2022-11-15T08:22:38.274Z,3.40
2022-11-15T08:25:09.289Z,3.00
2022-11-15T08:27:37.599Z,2.20
2022-11-15T08:30:06.553Z,1.80
2022-11-15T08:32:35.070Z,0.80
2022-11-15T08:35:04.779Z,3.00
2022-11-15T08:37:33.289Z,0.80
2022-11-15T08:40:01.642Z,1.00
2022-11-15T08:42:31.308Z,2.20
2022-11-15T08:44:59.558Z,3.00
2022-11-15T08:47:27.848Z,2.60
2022-11-15T08:49:56.092Z,1.40
2022-11-15T08:52:27.157Z,3.00
2022-11-15T08:54:55.430Z,3.00
2022-11-15T08:57:23.705Z,1.00
2022-11-15T08:59:53.380Z,2.20
2022-11-15T09:02:21.708Z,3.00
2022-11-15T09:04:49.980Z,3.00
2022-11-15T09:07:18.319Z,3.00
2022-11-15T09:09:46.662Z,3.80
2022-11-15T09:12:15.065Z,1.00
2022-11-15T09:14:43.418Z,3.40
2022-11-15T09:17:16.448Z,3.00
2022-11-15T09:19:50.053Z,1.00
2022-11-15T09:22:19.694Z,1.80
2022-11-15T09:24:48.361Z,3.20
2022-11-15T09:27:16.643Z,4.00
2022-11-15T09:29:44.890Z,3.00
2022-11-15T09:32:14.569Z,1.00
2022-11-15T09:34:42.872Z,2.20
2022-11-15T09:37:11.586Z,1.00
2022-11-15T09:39:58.634Z,3.00
2022-11-15T09:42:34.546Z,3.00
2022-11-15T09:45:14.874Z,1.00
2022-11-15T09:48:01.759Z,1.00
2022-11-15T09:50:37.005Z,1.40
2022-11-15T09:53:57.571Z,3.00
2022-11-15T09:56:20.836Z,4.00
2022-11-15T09:58:53.413Z,4.00
2022-11-15T10:01:25.246Z,1.00
2022-11-15T10:03:54.944Z,2.60
2022-11-15T10:06:25.357Z,2.60
2022-11-15T10:08:56.938Z,0.40
2022-11-15T10:11:42.504Z,3.00
2022-11-15T10:14:13.612Z,3.00
2022-11-15T10:17:01.308Z,3.00
2022-11-15T10:19:33.338Z,1.40
2022-11-15T10:22:08.861Z,1.00
2022-11-15T10:24:38.057Z,1.00
2022-11-15T10:27:10.438Z,3.80
2022-11-15T10:29:38.730Z,3.60
2022-11-15T10:32:10.179Z,1.80
2022-11-15T10:34:43.949Z,2.20
2022-11-15T10:37:12.333Z,3.00
2022-11-15T10:39:40.978Z,1.80
2022-11-15T10:42:18.428Z,1.40
2022-11-15T10:44:47.179Z,1.00
2022-11-15T10:47:27.669Z,1.00
2022-11-15T10:49:59.442Z,2.60
2022-11-15T10:52:28.798Z,0.00
2022-11-15T10:55:44.143Z,3.00
2022-11-15T10:58:23.795Z,0.80
2022-11-15T11:00:52.135Z,0.00
2022-11-15T11:03:30.504Z,2.20
2022-11-15T11:06:10.093Z,1.00
2022-11-15T11:08:38.460Z,1.00
2022-11-15T11:11:07.206Z,1.80
2022-11-15T11:13:38.340Z,1.00
2022-11-15T11:16:24.374Z,0.00
2022-11-15T11:18:57.548Z,1.00
2022-11-15T11:21:34.189Z,1.00
2022-11-15T11:24:08.015Z,1.00
2022-11-15T11:26:45.043Z,0.00
2022-11-15T11:29:23.449Z,0.80
2022-11-15T11:32:12.536Z,1.00
2022-11-15T11:34:47.335Z,0.00
2022-11-15T11:37:20.433Z,1.00
2022-11-15T11:39:54.468Z,0.40
2022-11-15T11:42:29.546Z,1.00
2022-11-15T11:45:01.122Z,0.80
2022-11-15T11:47:34.818Z,1.00
2022-11-15T11:50:04.610Z,1.00
2022-11-15T11:52:36.749Z,0.00
2022-11-15T11:55:08.147Z,0.00
2022-11-15T11:57:42.086Z,1.00
2022-11-15T12:00:18.497Z,0.20
2022-11-15T12:02:49.783Z,0.40
2022-11-15T12:05:20.918Z,1.00
2022-11-15T12:07:51.818Z,0.00
2022-11-15T12:10:24.906Z,0.00
2022-11-15T12:12:57.919Z,1.80
2022-11-15T12:15:27.525Z,0.60
2022-11-15T12:17:57.567Z,1.00
2022-11-15T12:20:27.491Z,0.00
2022-11-15T12:22:58.394Z,0.00
2022-11-15T12:25:32.063Z,1.00
2022-11-15T12:28:03.130Z,0.00
2022-11-15T12:30:44.816Z,0.00
2022-11-15T12:33:33.804Z,0.00
2022-11-15T12:36:03.115Z,3.00
2022-11-15T12:38:54.283Z,0.60
2022-11-15T12:41:23.645Z,1.00
2022-11-15T12:43:52.380Z,0.00
2022-11-15T12:46:23.971Z,0.20
2022-11-15T12:48:55.575Z,0.80
2022-11-15T12:51:25.130Z,1.00
2022-11-15T12:53:54.840Z,3.00
2022-11-15T12:56:25.093Z,0.00
2022-11-15T12:58:55.897Z,1.00
2022-11-15T13:01:55.656Z,1.00
2022-11-15T13:04:27.388Z,1.00
2022-11-15T13:06:56.906Z,0.00
2022-11-15T13:09:54.760Z,0.20
2022-11-15T13:12:54.446Z,1.00
2022-11-15T13:15:48.468Z,0.00
2022-11-15T13:18:35.889Z,1.00
2022-11-15T13:21:27.494Z,0.80
2022-11-15T13:23:57.096Z,1.00
2022-11-15T13:26:27.505Z,1.00
2022-11-15T13:28:57.131Z,1.00
2022-11-15T13:31:28.677Z,1.00
2022-11-15T13:33:58.517Z,3.00
2022-11-15T13:36:28.740Z,3.20
2022-11-15T13:38:59.175Z,1.80
2022-11-15T13:41:30.465Z,4.00
2022-11-15T13:44:00.792Z,1.00
2022-11-15T13:46:29.769Z,1.00
2022-11-15T13:48:59.282Z,3.00
2022-11-15T13:51:32.065Z,0.40
2022-11-15T13:54:03.731Z,1.40
2022-11-15T13:56:33.662Z,2.20
2022-11-15T13:59:02.074Z,3.20
2022-11-15T14:01:31.511Z,3.00
2022-11-15T14:04:01.129Z,3.20
2022-11-15T14:06:30.647Z,4.00
2022-11-15T14:09:02.437Z,4.00
2022-11-15T14:11:32.556Z,2.20
2022-11-15T14:14:15.166Z,6.40
2022-11-15T14:16:44.737Z,3.00
2022-11-15T14:19:14.136Z,3.20
2022-11-15T14:22:10.980Z,1.80
2022-11-15T14:24:39.595Z,1.40
2022-11-15T14:27:25.264Z,3.00
2022-11-15T14:29:56.524Z,0.00
2022-11-15T14:32:28.038Z,3.60
2022-11-15T14:34:57.719Z,2.20
2022-11-15T14:37:26.990Z,1.80
2022-11-15T14:39:55.403Z,3.00
2022-11-15T14:42:25.442Z,1.00
2022-11-15T14:44:53.989Z,3.00
2022-11-15T14:47:22.358Z,3.80
2022-11-15T14:49:50.774Z,3.00
2022-11-15T14:52:31.823Z,1.00
2022-11-15T14:55:02.517Z,3.00
2022-11-15T14:57:32.446Z,1.00
2022-11-15T15:00:00.733Z,3.00
2022-11-15T15:02:29.267Z,1.80
2022-11-15T15:05:02.178Z,3.00
2022-11-15T15:07:30.985Z,3.00
2022-11-15T15:10:32.383Z,3.60
2022-11-15T15:12:49.813Z,1.00
2022-11-15T15:15:19.373Z,3.80
2022-11-15T15:17:47.989Z,3.80
2022-11-15T15:20:16.702Z,3.00
2022-11-15T15:22:45.045Z,4.00
2022-11-15T15:25:23.111Z,3.00
2022-11-15T15:27:52.851Z,3.00
2022-11-15T15:30:21.859Z,1.40
2022-11-15T15:32:50.350Z,2.20
2022-11-15T15:35:20.602Z,3.00
2022-11-15T15:37:49.574Z,1.40
2022-11-15T15:40:19.582Z,3.00
2022-11-15T15:42:48.121Z,3.00
2022-11-15T15:45:18.316Z,3.20
2022-11-15T15:47:49.396Z,1.80
2022-11-15T15:50:23.480Z,3.00
2022-11-15T15:52:51.944Z,3.60
2022-11-15T15:55:20.543Z,4.00
2022-11-15T15:57:49.025Z,3.00
2022-11-15T16:00:20.403Z,3.80
2022-11-15T16:03:08.888Z,3.00
2022-11-15T16:05:39.337Z,4.00
2022-11-15T16:08:07.684Z,4.40
2022-11-15T16:10:37.842Z,32.80
2022-11-15T16:13:06.641Z,4.40
2022-11-15T16:15:36.310Z,8.60
2022-11-15T16:18:05.842Z,3.00
2022-11-15T16:20:37.134Z,4.00
2022-11-15T16:23:09.058Z,3.80
2022-11-15T16:25:42.953Z,1.00
2022-11-15T16:28:18.846Z,3.00
2022-11-15T16:30:52.436Z,0.40
2022-11-15T16:33:25.313Z,1.00
2022-11-15T16:35:54.118Z,1.80
2022-11-15T16:38:22.514Z,3.00
2022-11-15T16:40:50.847Z,3.60
2022-11-15T16:43:19.181Z,4.00
2022-11-15T16:45:49.011Z,1.40
2022-11-15T16:48:23.315Z,3.00
2022-11-15T16:50:51.624Z,3.20
2022-11-15T16:53:20.038Z,3.00
2022-11-15T16:55:48.532Z,6.20
2022-11-15T16:58:16.888Z,4.80
2022-11-15T17:00:45.439Z,3.00
2022-11-15T17:03:15.317Z,6.00
2022-11-15T17:05:43.611Z,3.00
2022-11-15T17:08:11.991Z,2.60
2022-11-15T17:10:48.024Z,3.00
2022-11-15T17:13:16.744Z,3.00
2022-11-15T17:15:45.037Z,4.00
2022-11-15T17:18:15.718Z,3.40
2022-11-15T17:20:44.153Z,3.00
2022-11-15T17:23:14.879Z,3.00
2022-11-15T17:25:43.317Z,1.40
2022-11-15T17:28:12.872Z,1.40
2022-11-15T17:30:45.272Z,3.00
2022-11-15T17:33:16.929Z,3.00
2022-11-15T17:35:45.370Z,3.20
2022-11-15T17:38:14.577Z,3.00
2022-11-15T17:40:43.024Z,4.00
2022-11-15T17:43:11.747Z,1.40
2022-11-15T17:45:42.438Z,4.40
2022-11-15T17:48:10.717Z,4.00
2022-11-15T17:50:40.401Z,5.20
2022-11-15T17:53:09.956Z,3.20
2022-11-15T17:55:38.257Z,4.00
2022-11-15T17:58:06.577Z,3.00
2022-11-15T18:00:41.922Z,3.40
2022-11-15T18:03:17.464Z,2.20
2022-11-15T18:05:47.698Z,5.20
2022-11-15T18:08:18.602Z,6.00
2022-11-15T18:10:48.431Z,3.60
2022-11-15T18:13:16.721Z,4.00
2022-11-15T18:15:45.045Z,1.00
2022-11-15T18:18:13.362Z,4.00
2022-11-15T18:20:42.533Z,3.60
2022-11-15T18:23:12.188Z,3.00
2022-11-15T18:25:40.476Z,3.20
2022-11-15T18:28:08.761Z,4.00
2022-11-15T18:30:39.729Z,4.00
2022-11-15T18:33:08.082Z,4.00
2022-11-15T18:35:37.155Z,4.00
2022-11-15T18:38:05.480Z,4.00
2022-11-15T18:40:35.183Z,6.00
2022-11-15T18:43:03.481Z,9.00
2022-11-15T18:45:32.274Z,6.80
2022-11-15T18:48:00.600Z,9.00
2022-11-15T18:50:28.918Z,6.00
2022-11-15T18:52:57.319Z,3.60
2022-11-15T18:55:26.144Z,5.20
2022-11-15T18:57:56.153Z,4.00
2022-11-15T19:00:24.665Z,4.00
2022-11-15T19:02:55.435Z,4.80
2022-11-15T19:05:23.857Z,4.80
2022-11-15T19:07:52.335Z,3.60
2022-11-15T19:10:20.648Z,6.00
2022-11-15T19:12:49.577Z,4.00
2022-11-15T19:15:19.242Z,1.00
2022-11-15T19:17:48.033Z,3.20
2022-11-15T19:20:16.498Z,3.00
2022-11-15T19:22:44.788Z,6.60
2022-11-15T19:25:13.130Z,3.00
2022-11-15T19:27:41.728Z,6.00
2022-11-15T19:30:11.037Z,6.60
2022-11-15T19:32:40.767Z,6.00
2022-11-15T19:35:09.466Z,5.60
2022-11-15T19:37:41.608Z,3.80
2022-11-15T19:40:12.754Z,6.00
2022-11-15T19:42:42.600Z,4.00
2022-11-15T19:45:11.781Z,6.80
2022-11-15T19:47:41.531Z,3.60
2022-11-15T19:50:10.675Z,3.20
2022-11-15T19:52:39.160Z,7.00
2022-11-15T19:55:08.249Z,7.00
2022-11-15T19:57:36.625Z,6.40
2022-11-15T20:00:07.544Z,4.00
2022-11-15T20:02:36.160Z,6.00
2022-11-15T20:05:06.145Z,6.00
2022-11-15T20:07:53.048Z,9.60
2022-11-15T20:10:21.339Z,6.60
2022-11-15T20:12:49.651Z,7.80
2022-11-15T20:15:18.375Z,7.40
2022-11-15T20:17:46.738Z,7.00
2022-11-15T20:20:16.966Z,6.00
2022-11-15T20:22:45.253Z,6.00
2022-11-15T20:25:13.814Z,8.20
2022-11-15T20:27:42.175Z,6.80
2022-11-15T20:30:11.750Z,6.60
2022-11-15T20:32:40.520Z,5.80
2022-11-15T20:35:09.176Z,9.00
2022-11-15T20:37:38.855Z,6.60
2022-11-15T20:40:07.952Z,8.20
2022-11-15T20:42:36.532Z,9.00
2022-11-15T20:45:05.160Z,6.20
2022-11-15T20:47:33.617Z,7.00
2022-11-15T20:50:20.788Z,7.00
2022-11-15T20:52:51.106Z,4.40
2022-11-15T20:55:19.362Z,3.00
2022-11-15T20:57:48.999Z,6.00
2022-11-15T21:00:17.677Z,7.00
2022-11-15T21:02:45.930Z,6.00
2022-11-15T21:05:14.515Z,6.00
2022-11-15T21:07:42.819Z,5.60
2022-11-15T21:10:26.389Z,1.80
2022-11-15T21:12:54.672Z,4.00
2022-11-15T21:15:22.957Z,5.60
2022-11-15T21:17:51.226Z,4.80
2022-11-15T21:20:19.626Z,4.00
2022-11-15T21:22:47.908Z,5.60
2022-11-15T21:25:17.589Z,3.40
2022-11-15T21:27:45.870Z,4.00
2022-11-15T21:30:14.727Z,6.00
2022-11-15T21:32:43.826Z,3.80
2022-11-15T21:35:12.081Z,4.00
2022-11-15T21:37:40.374Z,3.80
2022-11-15T21:40:10.004Z,3.00
2022-11-15T21:42:39.668Z,6.60
2022-11-15T21:45:08.962Z,8.20
2022-11-15T21:47:38.397Z,6.00
2022-11-15T21:50:09.035Z,6.00
2022-11-15T21:52:37.510Z,5.60
2022-11-15T21:55:06.118Z,3.40
2022-11-15T21:57:34.449Z,5.40
2022-11-15T22:00:17.924Z,4.00
2022-11-15T22:02:46.512Z,7.00
2022-11-15T22:05:14.795Z,6.00
2022-11-15T22:07:43.071Z,6.00
2022-11-15T22:10:11.624Z,5.20
2022-11-15T22:12:40.672Z,6.20
2022-11-15T22:15:10.956Z,3.00
2022-11-15T22:17:53.025Z,3.00
2022-11-15T22:20:43.572Z,4.80
2022-11-15T22:23:11.518Z,6.00
2022-11-15T22:25:40.323Z,7.20
2022-11-15T22:28:08.636Z,6.00
2022-11-15T22:30:38.603Z,6.20
2022-11-15T22:33:06.893Z,6.40
2022-11-15T22:35:35.715Z,4.40
2022-11-15T22:38:04.287Z,3.80
2022-11-15T22:40:32.588Z,4.00
2022-11-15T22:43:00.889Z,7.00
2022-11-15T22:45:29.153Z,5.20
2022-11-15T22:47:59.154Z,5.20
2022-11-15T22:50:27.430Z,6.00
2022-11-15T22:52:55.774Z,6.00
2022-11-15T22:55:24.331Z,7.40
2022-11-15T22:57:52.621Z,8.20
2022-11-15T23:00:21.022Z,6.80
2022-11-15T23:02:53.240Z,7.00
2022-11-15T23:05:23.977Z,5.20
2022-11-15T23:07:52.273Z,5.60
2022-11-15T23:10:34.429Z,6.60
2022-11-15T23:13:18.164Z,7.00
2022-11-15T23:16:01.407Z,6.80
2022-11-15T23:18:30.299Z,9.00
2022-11-15T23:21:00.184Z,4.80
2022-11-15T23:23:27.768Z,5.20
2022-11-15T23:25:59.956Z,4.00
2022-11-15T23:28:28.302Z,7.00
2022-11-15T23:31:10.666Z,9.00
2022-11-15T23:33:52.822Z,7.00
2022-11-15T23:36:22.506Z,7.80
2022-11-15T23:38:51.138Z,6.80
2022-11-15T23:41:21.911Z,7.00
2022-11-15T23:43:50.177Z,6.60
2022-11-15T23:46:18.473Z,6.20
2022-11-15T23:48:46.746Z,7.80
2022-11-15T23:51:15.047Z,8.20
2022-11-15T23:53:44.702Z,6.20
2022-11-15T23:56:13.774Z,8.80
2022-11-15T23:58:42.416Z,7.40
